Time;durP1;ratioP1;P1;durP2;ratioP2;P2;SDS_P1;SDS_P2;PMS_P1;PMS_P2;Temp;Humidity;BMP_temperature;BMP_pressure;BME280_temperature;BME280_humidity;BME280_pressure;Samples;Min_cycle;Max_cycle;Signal;HPM_P1;HPM_P2
2024/01/18 00:00:22;;;;;;;5.30;3.80;;;;;;;;;;5057051;27;92146;-75
2024/01/18 00:02:49;;;;;;;5.53;3.53;;;;;;;;;;5055389;27;94767;-76
2024/01/18 00:05:15;;;;;;;7.30;3.85;;;;;;;;;;5056470;27;92643;-76
2024/01/18 00:07:42;;;;;;;4.28;2.88;;;;;;;;;;5057028;27;92408;-76
2024/01/18 00:10:08;;;;;;;4.75;3.25;;;;;;;;;;5059389;27;92596;-76
2024/01/18 00:12:36;;;;;;;3.55;2.83;;;;;;;;;;5056635;27;92861;-75
2024/01/18 00:15:03;;;;;;;6.10;3.90;;;;;;;;;;5054300;27;92366;-76
2024/01/18 00:17:30;;;;;;;3.80;3.20;;;;;;;;;;5055099;27;92900;-76
2024/01/18 00:19:56;;;;;;;5.55;3.13;;;;;;;;;;5057288;27;91810;-76
2024/01/18 00:22:23;;;;;;;6.30;3.30;;;;;;;;;;5056680;27;92502;-76
2024/01/18 00:24:49;;;;;;;5.43;2.97;;;;;;;;;;5054990;27;93021;-77
2024/01/18 00:27:16;;;;;;;4.85;2.88;;;;;;;;;;5055040;27;95169;-76
2024/01/18 00:29:42;;;;;;;3.03;2.72;;;;;;;;;;5028233;27;96478;-76
2024/01/18 00:32:09;;;;;;;6.68;2.90;;;;;;;;;;5059576;27;92409;-76
2024/01/18 00:34:35;;;;;;;4.28;3.08;;;;;;;;;;5056360;27;92883;-76
2024/01/18 00:37:02;;;;;;;5.82;3.17;;;;;;;;;;5056725;27;92948;-76
2024/01/18 00:39:28;;;;;;;4.72;3.22;;;;;;;;;;5054871;27;92194;-76
2024/01/18 00:41:55;;;;;;;6.68;2.97;;;;;;;;;;5037255;27;94592;-76
2024/01/18 00:44:21;;;;;;;3.03;2.47;;;;;;;;;;5056809;27;92067;-75
2024/01/18 00:46:48;;;;;;;6.70;3.15;;;;;;;;;;5056144;27;92351;-75
2024/01/18 00:49:14;;;;;;;3.35;2.65;;;;;;;;;;5056157;27;92530;-76
2024/01/18 00:51:41;;;;;;;5.13;2.85;;;;;;;;;;5036568;27;94807;-75
2024/01/18 00:54:07;;;;;;;4.68;2.45;;;;;;;;;;5059207;27;94058;-75
2024/01/18 00:56:34;;;;;;;4.80;2.67;;;;;;;;;;5037587;27;93113;-75
2024/01/18 00:59:00;;;;;;;3.72;2.75;;;;;;;;;;5056279;27;93089;-75
2024/01/18 01:01:27;;;;;;;4.85;2.72;;;;;;;;;;5055760;27;92473;-76
2024/01/18 01:03:53;;;;;;;4.50;2.85;;;;;;;;;;5055007;27;92460;-75
2024/01/18 01:06:20;;;;;;;4.28;2.70;;;;;;;;;;5032557;27;92888;-75
2024/01/18 01:08:46;;;;;;;4.05;2.20;;;;;;;;;;5054468;27;92239;-75
2024/01/18 01:11:13;;;;;;;4.55;2.47;;;;;;;;;;5037427;27;93950;-75
2024/01/18 01:13:40;;;;;;;3.95;2.47;;;;;;;;;;5054764;27;92839;-76
2024/01/18 01:16:07;;;;;;;3.25;2.47;;;;;;;;;;5056847;27;94687;-76
2024/01/18 01:18:33;;;;;;;2.67;2.10;;;;;;;;;;5055599;27;94000;-75
2024/01/18 01:21:00;;;;;;;3.83;2.78;;;;;;;;;;5055835;27;92500;-75
2024/01/18 01:23:27;;;;;;;5.25;2.30;;;;;;;;;;5055376;27;92990;-75
2024/01/18 01:25:53;;;;;;;6.13;2.30;;;;;;;;;;5055518;27;93175;-75
2024/01/18 01:28:20;;;;;;;5.28;2.20;;;;;;;;;;5037222;27;95402;-76
2024/01/18 01:30:46;;;;;;;3.13;2.17;;;;;;;;;;5055714;27;92359;-76
2024/01/18 01:33:13;;;;;;;6.53;2.42;;;;;;;;;;5055829;27;92848;-76
2024/01/18 01:35:39;;;;;;;2.97;2.10;;;;;;;;;;5037545;27;92319;-75
2024/01/18 01:38:06;;;;;;;3.30;2.08;;;;;;;;;;5057954;27;92409;-76
2024/01/18 01:40:32;;;;;;;5.70;2.10;;;;;;;;;;5053476;27;94810;-75
2024/01/18 01:42:59;;;;;;;3.38;1.90;;;;;;;;;;5055449;27;92943;-76
2024/01/18 01:45:25;;;;;;;4.90;2.25;;;;;;;;;;5055060;27;92944;-75
2024/01/18 01:47:51;;;;;;;3.03;2.10;;;;;;;;;;5055100;27;92527;-75
2024/01/18 01:50:18;;;;;;;4.85;2.08;;;;;;;;;;5036747;27;93068;-76
2024/01/18 01:52:45;;;;;;;7.47;2.00;;;;;;;;;;5055102;27;93949;-76
2024/01/18 01:55:15;;;;;;;2.55;1.88;;;;;;;;;;5036733;27;94601;-75
2024/01/18 01:57:44;;;;;;;3.65;1.88;;;;;;;;;;5058446;27;92032;-75
2024/01/18 02:00:12;;;;;;;6.57;2.33;;;;;;;;;;5055006;27;92343;-75
2024/01/18 02:02:40;;;;;;;4.15;2.30;;;;;;;;;;5036517;27;96197;-75
2024/01/18 02:05:07;;;;;;;2.50;1.95;;;;;;;;;;5052913;27;94834;-75
2024/01/18 02:07:36;;;;;;;2.90;2.00;;;;;;;;;;5055058;27;92446;-75
2024/01/18 02:10:03;;;;;;;4.95;1.80;;;;;;;;;;5054613;27;92422;-77
2024/01/18 02:12:31;;;;;;;3.38;2.47;;;;;;;;;;5036137;27;94848;-76
2024/01/18 02:14:57;;;;;;;5.75;1.90;;;;;;;;;;5054587;27;93410;-77
2024/01/18 02:17:24;;;;;;;2.88;2.00;;;;;;;;;;5054609;27;92403;-76
2024/01/18 02:19:50;;;;;;;4.72;2.42;;;;;;;;;;5039579;27;94981;-77
2024/01/18 02:22:18;;;;;;;3.08;1.63;;;;;;;;;;5037196;27;92668;-76
2024/01/18 02:24:47;;;;;;;4.55;2.15;;;;;;;;;;5054305;27;92898;-76
2024/01/18 02:27:14;;;;;;;2.72;2.00;;;;;;;;;;5054581;27;92135;-76
2024/01/18 02:29:40;;;;;;;2.97;1.60;;;;;;;;;;5052985;27;94878;-76
2024/01/18 02:32:07;;;;;;;4.05;1.90;;;;;;;;;;5027212;28;93804;-76
2024/01/18 02:34:38;;;;;;;5.03;1.90;;;;;;;;;;5017578;27;92386;-76
2024/01/18 02:37:05;;;;;;;2.50;1.55;;;;;;;;;;5055066;27;93325;-76
2024/01/18 02:39:32;;;;;;;3.95;1.55;;;;;;;;;;5053878;27;93550;-76
2024/01/18 02:41:59;;;;;;;2.38;2.08;;;;;;;;;;5057587;27;92240;-76
2024/01/18 02:44:26;;;;;;;2.53;1.75;;;;;;;;;;5054394;27;91876;-76
2024/01/18 02:46:52;;;;;;;4.50;1.73;;;;;;;;;;5054636;27;92471;-76
2024/01/18 02:49:19;;;;;;;2.92;1.65;;;;;;;;;;5053856;27;93275;-76
2024/01/18 02:51:46;;;;;;;2.97;1.60;;;;;;;;;;5054338;27;92463;-76
2024/01/18 02:54:13;;;;;;;2.55;1.58;;;;;;;;;;5034024;27;94885;-76
2024/01/18 02:56:39;;;;;;;1.75;1.60;;;;;;;;;;5035687;27;92553;-76
2024/01/18 02:59:07;;;;;;;4.60;1.92;;;;;;;;;;5054599;27;92353;-76
2024/01/18 03:01:33;;;;;;;3.13;1.92;;;;;;;;;;5053392;27;92435;-76
2024/01/18 03:03:59;;;;;;;1.67;1.33;;;;;;;;;;5057616;27;92324;-76
2024/01/18 03:06:26;;;;;;;1.67;1.52;;;;;;;;;;5019791;27;92381;-76
2024/01/18 03:08:53;;;;;;;2.40;1.65;;;;;;;;;;5054180;27;92388;-76
2024/01/18 03:11:19;;;;;;;1.95;1.80;;;;;;;;;;5036240;27;92025;-76
2024/01/18 03:13:46;;;;;;;2.47;1.52;;;;;;;;;;5035757;27;93291;-76
2024/01/18 03:16:14;;;;;;;1.67;1.58;;;;;;;;;;5053824;27;93082;-76
2024/01/18 03:18:43;;;;;;;3.13;1.58;;;;;;;;;;5052291;27;94959;-76
2024/01/18 03:21:10;;;;;;;2.45;1.70;;;;;;;;;;5053625;27;92448;-75
2024/01/18 03:23:37;;;;;;;3.05;1.80;;;;;;;;;;5054123;27;93054;-75
2024/01/18 03:26:03;;;;;;;5.53;1.60;;;;;;;;;;5038188;27;92664;-76
2024/01/18 03:28:30;;;;;;;3.05;1.95;;;;;;;;;;5054381;27;92675;-76
2024/01/18 03:30:57;;;;;;;2.15;1.67;;;;;;;;;;5035686;27;92444;-76
2024/01/18 03:33:23;;;;;;;2.63;1.77;;;;;;;;;;5053456;27;92453;-76
2024/01/18 03:35:50;;;;;;;3.13;1.65;;;;;;;;;;5036051;27;93404;-76
2024/01/18 03:38:16;;;;;;;4.30;1.98;;;;;;;;;;5053643;27;92338;-76
2024/01/18 03:40:43;;;;;;;2.10;1.40;;;;;;;;;;5034929;27;96537;-76
2024/01/18 03:43:11;;;;;;;2.47;1.50;;;;;;;;;;5051844;27;95446;-76
2024/01/18 03:45:37;;;;;;;4.03;1.23;;;;;;;;;;5056735;27;95193;-75
2024/01/18 03:48:04;;;;;;;2.47;1.30;;;;;;;;;;5053352;27;92886;-75
2024/01/18 03:50:30;;;;;;;2.42;1.63;;;;;;;;;;5053829;27;92120;-75
2024/01/18 03:52:57;;;;;;;2.03;1.35;;;;;;;;;;5053509;27;92370;-75
2024/01/18 03:55:23;;;;;;;2.92;1.60;;;;;;;;;;5052887;27;92886;-75
2024/01/18 03:57:50;;;;;;;7.07;1.92;;;;;;;;;;5053392;27;92287;-75
2024/01/18 04:00:16;;;;;;;2.55;1.52;;;;;;;;;;5053549;27;91990;-75
2024/01/18 04:02:43;;;;;;;5.93;2.70;;;;;;;;;;5053325;27;92442;-75
2024/01/18 04:05:09;;;;;;;4.10;1.75;;;;;;;;;;5053261;27;92253;-75
2024/01/18 04:07:38;;;;;;;1.95;1.65;;;;;;;;;;5054792;27;95407;-74
2024/01/18 04:10:04;;;;;;;4.03;1.48;;;;;;;;;;5053440;27;93897;-75
2024/01/18 04:12:31;;;;;;;2.70;1.80;;;;;;;;;;5051146;27;92361;-75
2024/01/18 04:14:57;;;;;;;3.40;1.83;;;;;;;;;;5056906;27;93028;-75
2024/01/18 04:17:24;;;;;;;1.55;1.45;;;;;;;;;;5055971;27;92702;-75
2024/01/18 04:19:51;;;;;;;3.80;1.25;;;;;;;;;;5056115;27;93041;-75
2024/01/18 04:22:18;;;;;;;2.38;1.50;;;;;;;;;;5056742;27;92950;-76
2024/01/18 04:24:45;;;;;;;1.50;1.13;;;;;;;;;;5056892;27;91959;-76
2024/01/18 04:27:12;;;;;;;1.65;1.38;;;;;;;;;;5056697;27;92453;-75
2024/01/18 04:29:38;;;;;;;4.80;1.63;;;;;;;;;;5059188;27;92391;-76
2024/01/18 04:32:05;;;;;;;1.50;1.38;;;;;;;;;;5055042;27;94704;-75
2024/01/18 04:34:31;;;;;;;2.83;1.50;;;;;;;;;;5056111;27;92385;-75
2024/01/18 04:36:58;;;;;;;1.60;1.20;;;;;;;;;;5056602;27;92373;-75
2024/01/18 04:39:24;;;;;;;2.25;1.55;;;;;;;;;;5056524;27;92385;-75
2024/01/18 04:41:51;;;;;;;2.50;1.73;;;;;;;;;;5055811;27;93411;-75
2024/01/18 04:44:17;;;;;;;2.33;1.52;;;;;;;;;;5037699;27;93709;-76
2024/01/18 04:46:44;;;;;;;1.60;1.50;;;;;;;;;;5055985;27;92288;-76
2024/01/18 04:49:10;;;;;;;2.05;1.38;;;;;;;;;;5055723;27;92136;-77
2024/01/18 04:51:37;;;;;;;4.45;1.63;;;;;;;;;;5038142;27;94055;-77
2024/01/18 04:54:04;;;;;;;2.60;1.30;;;;;;;;;;5055667;27;92986;-77
2024/01/18 04:56:30;;;;;;;3.35;2.10;;;;;;;;;;5035913;27;94669;-77
2024/01/18 04:58:57;;;;;;;1.83;1.23;;;;;;;;;;5055663;27;92652;-77
2024/01/18 05:01:23;;;;;;;3.83;1.48;;;;;;;;;;5055778;27;92988;-77
2024/01/18 05:03:50;;;;;;;2.75;1.33;;;;;;;;;;5034206;27;93739;-77
2024/01/18 05:06:16;;;;;;;5.57;1.60;;;;;;;;;;5055642;27;93355;-75
2024/01/18 05:08:44;;;;;;;2.78;1.40;;;;;;;;;;5055628;27;93141;-76
2024/01/18 05:11:11;;;;;;;1.40;1.30;;;;;;;;;;5055733;27;92257;-75
2024/01/18 05:13:37;;;;;;;2.53;1.60;;;;;;;;;;5040784;27;93749;-75
2024/01/18 05:16:04;;;;;;;1.35;1.20;;;;;;;;;;5037242;27;92446;-75
2024/01/18 05:18:30;;;;;;;1.33;1.23;;;;;;;;;;5055846;27;92356;-76
2024/01/18 05:20:57;;;;;;;1.20;0.95;;;;;;;;;;5053754;27;94894;-76
2024/01/18 05:23:23;;;;;;;5.57;1.60;;;;;;;;;;5056266;27;94062;-76
2024/01/18 05:25:50;;;;;;;1.70;1.20;;;;;;;;;;5055488;27;92318;-76
2024/01/18 05:28:16;;;;;;;1.55;1.23;;;;;;;;;;5055515;27;92961;-76
2024/01/18 05:30:43;;;;;;;1.63;1.25;;;;;;;;;;5055687;27;92743;-76
2024/01/18 05:33:10;;;;;;;1.35;1.25;;;;;;;;;;5055005;27;92969;-76
2024/01/18 05:35:36;;;;;;;2.65;1.38;;;;;;;;;;5058623;27;92302;-76
2024/01/18 05:38:03;;;;;;;2.35;1.48;;;;;;;;;;5055911;27;92684;-76
2024/01/18 05:40:30;;;;;;;1.60;1.23;;;;;;;;;;5055239;27;92355;-76
2024/01/18 05:42:56;;;;;;;2.35;1.45;;;;;;;;;;5055257;27;92414;-76
2024/01/18 05:45:23;;;;;;;2.75;1.38;;;;;;;;;;5053592;27;95686;-76
2024/01/18 05:47:49;;;;;;;1.98;1.52;;;;;;;;;;5054976;27;92785;-76
2024/01/18 05:50:16;;;;;;;2.28;1.23;;;;;;;;;;5054575;27;92449;-76
2024/01/18 05:52:42;;;;;;;1.88;1.77;;;;;;;;;;5055113;27;92404;-76
2024/01/18 05:55:09;;;;;;;4.63;2.30;;;;;;;;;;5058081;27;92347;-76
2024/01/18 05:57:37;;;;;;;1.90;1.65;;;;;;;;;;5043759;27;92335;-75
2024/01/18 06:00:05;;;;;;;1.95;1.75;;;;;;;;;;5054951;27;92157;-75
2024/01/18 06:02:32;;;;;;;2.55;1.70;;;;;;;;;;5054931;27;92780;-75
2024/01/18 06:04:58;;;;;;;1.52;1.35;;;;;;;;;;5055137;27;93144;-75
2024/01/18 06:07:26;;;;;;;3.10;1.95;;;;;;;;;;5051816;27;92421;-76
2024/01/18 06:09:52;;;;;;;3.25;2.15;;;;;;;;;;5052830;27;94572;-76
2024/01/18 06:12:20;;;;;;;4.43;2.85;;;;;;;;;;5034635;27;92339;-76
2024/01/18 06:14:47;;;;;;;3.55;2.03;;;;;;;;;;5052192;27;93495;-76
2024/01/18 06:17:13;;;;;;;9.25;2.72;;;;;;;;;;5056590;27;92923;-76
2024/01/18 06:19:39;;;;;;;4.55;1.92;;;;;;;;;;5052822;27;92960;-76
2024/01/18 06:22:06;;;;;;;4.05;2.00;;;;;;;;;;5052925;27;92596;-76
2024/01/18 06:24:33;;;;;;;2.05;1.58;;;;;;;;;;5051330;27;92454;-75
2024/01/18 06:26:59;;;;;;;3.05;1.90;;;;;;;;;;5034754;27;94673;-75
2024/01/18 06:29:29;;;;;;;3.30;1.80;;;;;;;;;;5054632;27;92265;-76
2024/01/18 06:31:56;;;;;;;1.83;1.70;;;;;;;;;;5054703;27;92406;-77
2024/01/18 06:34:22;;;;;;;2.80;2.05;;;;;;;;;;5052044;27;94879;-76
2024/01/18 06:36:51;;;;;;;3.35;2.08;;;;;;;;;;5051902;27;95047;-76
2024/01/18 06:39:17;;;;;;;4.50;2.47;;;;;;;;;;5054619;27;93589;-76
2024/01/18 06:41:44;;;;;;;3.92;2.85;;;;;;;;;;5053571;27;93349;-76
2024/01/18 06:44:10;;;;;;;3.00;2.17;;;;;;;;;;5054645;27;92446;-76
2024/01/18 06:46:37;;;;;;;3.65;2.65;;;;;;;;;;5053567;27;92770;-76
2024/01/18 06:49:03;;;;;;;2.28;2.00;;;;;;;;;;5053853;27;92518;-76
2024/01/18 06:51:30;;;;;;;6.32;2.22;;;;;;;;;;5054419;27;92270;-76
2024/01/18 06:53:58;;;;;;;5.13;2.20;;;;;;;;;;5041450;27;92503;-76
2024/01/18 06:56:25;;;;;;;2.67;1.75;;;;;;;;;;5054128;27;92828;-76
2024/01/18 06:58:51;;;;;;;1.98;1.77;;;;;;;;;;5033382;27;95986;-76
2024/01/18 07:01:18;;;;;;;3.15;2.17;;;;;;;;;;5057355;27;92396;-76
2024/01/18 07:03:44;;;;;;;1.83;1.60;;;;;;;;;;5053791;27;93195;-76
2024/01/18 07:06:11;;;;;;;4.45;1.70;;;;;;;;;;5054179;27;92234;-76
2024/01/18 07:08:38;;;;;;;3.42;2.17;;;;;;;;;;5035848;27;92357;-76
2024/01/18 07:11:05;;;;;;;3.25;2.15;;;;;;;;;;5054020;27;92317;-76
2024/01/18 07:13:31;;;;;;;3.60;2.17;;;;;;;;;;5050595;27;92925;-76
2024/01/18 07:15:58;;;;;;;3.15;1.50;;;;;;;;;;5054147;27;92556;-76
2024/01/18 07:18:25;;;;;;;2.03;1.70;;;;;;;;;;5053942;27;92256;-76
2024/01/18 07:20:52;;;;;;;2.05;1.90;;;;;;;;;;5053842;27;93017;-76
2024/01/18 07:23:18;;;;;;;2.55;1.60;;;;;;;;;;5055653;27;94746;-76
2024/01/18 07:25:44;;;;;;;15.93;2.13;;;;;;;;;;5035598;27;93782;-76
2024/01/18 07:28:11;;;;;;;1.65;1.30;;;;;;;;;;5035555;27;92850;-76
2024/01/18 07:30:38;;;;;;;5.40;1.52;;;;;;;;;;5053836;27;92469;-76
2024/01/18 07:33:05;;;;;;;4.55;1.45;;;;;;;;;;5053103;27;92971;-76
2024/01/18 07:35:32;;;;;;;2.67;1.42;;;;;;;;;;5053119;27;92658;-76
2024/01/18 07:37:59;;;;;;;1.98;1.60;;;;;;;;;;5053857;27;92594;-76
2024/01/18 07:40:25;;;;;;;1.98;1.25;;;;;;;;;;5054070;27;93043;-76
2024/01/18 07:42:51;;;;;;;1.65;1.50;;;;;;;;;;5053762;27;92393;-76
2024/01/18 07:45:18;;;;;;;3.67;1.40;;;;;;;;;;5056090;27;93084;-76
2024/01/18 07:47:44;;;;;;;6.88;1.35;;;;;;;;;;5052060;27;94720;-76
2024/01/18 07:50:11;;;;;;;1.20;1.10;;;;;;;;;;5056890;27;92301;-76
2024/01/18 07:52:58;;;;;;;3.28;1.40;;;;;;;;;;5057280;27;93080;-76
2024/01/18 07:55:25;;;;;;;2.97;1.30;;;;;;;;;;5056594;27;92270;-76
2024/01/18 07:57:51;;;;;;;1.80;1.50;;;;;;;;;;5043318;27;93178;-76
2024/01/18 08:00:18;;;;;;;1.65;1.30;;;;;;;;;;5038244;27;93174;-77
2024/01/18 08:02:45;;;;;;;5.47;1.38;;;;;;;;;;5041977;27;95433;-81
2024/01/18 08:05:11;;;;;;;9.43;1.60;;;;;;;;;;5062990;27;91990;-82
2024/01/18 08:07:38;;;;;;;2.55;1.48;;;;;;;;;;5045073;27;92380;-81
2024/01/18 08:10:06;;;;;;;3.00;1.30;;;;;;;;;;5061456;27;93136;-76
2024/01/18 08:12:33;;;;;;;1.30;1.08;;;;;;;;;;5054387;27;94674;-77
2024/01/18 08:15:00;;;;;;;7.20;1.50;;;;;;;;;;5043088;27;95120;-77
2024/01/18 08:17:27;;;;;;;5.15;1.40;;;;;;;;;;5057246;27;93138;-81
2024/01/18 08:19:54;;;;;;;4.43;1.90;;;;;;;;;;5057589;27;92286;-81
2024/01/18 08:22:21;;;;;;;1.55;1.00;;;;;;;;;;5059741;27;92491;-80
2024/01/18 08:24:48;;;;;;;4.03;1.05;;;;;;;;;;5060105;27;92407;-80
2024/01/18 08:27:14;;;;;;;1.30;1.20;;;;;;;;;;5062623;27;92344;-78
2024/01/18 08:29:41;;;;;;;2.53;1.25;;;;;;;;;;5061867;27;92477;-82
2024/01/18 08:32:08;;;;;;;1.67;1.20;;;;;;;;;;5042848;27;93946;-83
2024/01/18 08:34:35;;;;;;;1.58;1.00;;;;;;;;;;5044215;27;92410;-82
2024/01/18 08:37:02;;;;;;;1.48;1.35;;;;;;;;;;5062084;27;95583;-82
2024/01/18 08:39:28;;;;;;;0.88;0.85;;;;;;;;;;5026925;27;94275;-81
2024/01/18 08:41:59;;;;;;;1.42;1.25;;;;;;;;;;5041116;27;92354;-78
2024/01/18 08:44:26;;;;;;;6.45;1.30;;;;;;;;;;5058211;27;94131;-79
2024/01/18 08:46:52;;;;;;;2.28;1.10;;;;;;;;;;5064405;27;92347;-82
2024/01/18 08:49:24;;;;;;;1.20;1.10;;;;;;;;;;5070192;27;92812;-83
2024/01/18 08:51:52;;;;;;;1.63;1.33;;;;;;;;;;5048160;27;95901;-82
2024/01/18 08:54:20;;;;;;;1.58;1.38;;;;;;;;;;5052246;27;92089;-81
2024/01/18 08:56:47;;;;;;;2.58;1.20;;;;;;;;;;5034411;27;94383;-82
2024/01/18 08:59:13;;;;;;;3.85;1.00;;;;;;;;;;5058638;27;92454;-74
2024/01/18 09:01:40;;;;;;;10.27;1.33;;;;;;;;;;5053358;27;94509;-74
2024/01/18 09:04:06;;;;;;;1.70;0.80;;;;;;;;;;5056205;27;92327;-75
2024/01/18 09:06:33;;;;;;;1.70;1.00;;;;;;;;;;5055316;27;92416;-75
2024/01/18 09:08:59;;;;;;;1.08;0.90;;;;;;;;;;5055751;27;93654;-75
2024/01/18 09:11:26;;;;;;;1.42;1.15;;;;;;;;;;5058806;27;92166;-75
2024/01/18 09:13:52;;;;;;;2.88;1.30;;;;;;;;;;5056040;27;92470;-75
2024/01/18 09:16:19;;;;;;;1.40;1.00;;;;;;;;;;5054962;27;93126;-75
2024/01/18 09:18:45;;;;;;;3.35;1.42;;;;;;;;;;5055900;27;91917;-76
2024/01/18 09:21:31;;;;;;;1.13;1.02;;;;;;;;;;5055775;27;92370;-75
2024/01/18 09:23:58;;;;;;;4.47;1.23;;;;;;;;;;5056343;27;93196;-80
2024/01/18 09:26:25;;;;;;;3.80;1.10;;;;;;;;;;5069899;27;95301;-79
2024/01/18 09:28:51;;;;;;;2.17;1.23;;;;;;;;;;5050567;27;94475;-77
2024/01/18 09:31:18;;;;;;;3.92;1.20;;;;;;;;;;5066006;27;92312;-80
2024/01/18 09:34:03;;;;;;;3.60;1.05;;;;;;;;;;5045533;27;92436;-79
2024/01/18 09:36:30;;;;;;;1.33;1.23;;;;;;;;;;5040124;27;92263;-80
2024/01/18 09:38:57;;;;;;;2.38;0.95;;;;;;;;;;5058348;27;92314;-79
2024/01/18 09:41:26;;;;;;;1.77;1.05;;;;;;;;;;5056952;27;92293;-80
2024/01/18 09:43:56;;;;;;;1.02;0.93;;;;;;;;;;5057575;27;91932;-80
2024/01/18 09:46:22;;;;;;;1.77;0.90;;;;;;;;;;5059328;27;92145;-79
2024/01/18 09:48:49;;;;;;;1.42;1.23;;;;;;;;;;5065198;27;92391;-79
2024/01/18 09:51:16;;;;;;;2.58;1.08;;;;;;;;;;5066548;27;94837;-79
2024/01/18 09:53:48;;;;;;;1.20;1.02;;;;;;;;;;5065363;27;92393;-77
2024/01/18 09:56:21;;;;;;;0.70;0.70;;;;;;;;;;5069235;27;93448;-81
2024/01/18 09:58:47;;;;;;;4.22;1.08;;;;;;;;;;5061793;27;93153;-81
2024/01/18 10:01:18;;;;;;;1.23;1.10;;;;;;;;;;5067491;27;91968;-81
2024/01/18 10:03:45;;;;;;;1.40;0.90;;;;;;;;;;5068203;27;92465;-82
2024/01/18 10:06:12;;;;;;;2.00;0.93;;;;;;;;;;5065900;27;92334;-81
2024/01/18 10:08:39;;;;;;;1.00;0.73;;;;;;;;;;5064413;27;92226;-79
2024/01/18 10:11:07;;;;;;;0.70;0.70;;;;;;;;;;5065269;27;92291;-81
2024/01/18 10:13:52;;;;;;;1.95;1.08;;;;;;;;;;5064109;27;92338;-81
2024/01/18 10:16:29;;;;;;;5.43;0.80;;;;;;;;;;5068368;27;94665;-78
2024/01/18 10:18:56;;;;;;;2.10;0.90;;;;;;;;;;5064508;27;92423;-81
2024/01/18 10:21:23;;;;;;;5.50;0.80;;;;;;;;;;5064374;27;92293;-79
2024/01/18 10:23:51;;;;;;;0.95;0.77;;;;;;;;;;5046486;27;92323;-82
2024/01/18 10:26:18;;;;;;;3.50;0.82;;;;;;;;;;5041594;27;94112;-80
2024/01/18 10:28:44;;;;;;;0.65;0.57;;;;;;;;;;5039321;27;92907;-80
2024/01/18 10:31:11;;;;;;;0.60;0.60;;;;;;;;;;5055801;27;92122;-78
2024/01/18 10:33:37;;;;;;;3.08;1.00;;;;;;;;;;5062919;27;92937;-79
2024/01/18 10:36:04;;;;;;;0.95;0.90;;;;;;;;;;5041709;27;92401;-81
2024/01/18 10:38:35;;;;;;;1.75;0.75;;;;;;;;;;5063984;27;92439;-76
2024/01/18 10:41:04;;;;;;;2.05;0.80;;;;;;;;;;5068323;27;94692;-80
2024/01/18 10:43:32;;;;;;;5.55;0.80;;;;;;;;;;5036791;27;92312;-77
2024/01/18 10:45:59;;;;;;;1.50;0.80;;;;;;;;;;5053914;27;93198;-75
2024/01/18 10:48:26;;;;;;;1.20;0.80;;;;;;;;;;5056640;27;92760;-79
2024/01/18 10:50:56;;;;;;;0.57;0.57;;;;;;;;;;5041749;27;95146;-76
2024/01/18 10:53:26;;;;;;;1.35;0.55;;;;;;;;;;5054310;27;92985;-77
2024/01/18 10:55:53;;;;;;;0.95;0.50;;;;;;;;;;5054970;27;92386;-76
2024/01/18 10:58:19;;;;;;;0.95;0.73;;;;;;;;;;5053887;27;91953;-77
2024/01/18 11:00:47;;;;;;;1.92;0.60;;;;;;;;;;5038543;27;93725;-76
2024/01/18 11:03:14;;;;;;;2.45;0.50;;;;;;;;;;5034927;27;92281;-76
2024/01/18 11:05:44;;;;;;;0.82;0.70;;;;;;;;;;5052011;27;94743;-76
2024/01/18 11:08:10;;;;;;;1.05;0.60;;;;;;;;;;5030005;27;93950;-83
2024/01/18 11:10:38;;;;;;;5.35;0.50;;;;;;;;;;5027633;27;92510;-77
2024/01/18 11:13:05;;;;;;;3.30;0.65;;;;;;;;;;5053034;27;92453;-76
2024/01/18 11:15:31;;;;;;;1.52;0.60;;;;;;;;;;5018361;27;93199;-76
2024/01/18 11:17:58;;;;;;;0.52;0.50;;;;;;;;;;5034879;27;92387;-76
2024/01/18 11:20:25;;;;;;;5.10;1.10;;;;;;;;;;5051589;27;92452;-76
2024/01/18 11:22:53;;;;;;;2.83;0.68;;;;;;;;;;5037090;27;92269;-77
2024/01/18 11:25:21;;;;;;;0.55;0.50;;;;;;;;;;5052276;27;92800;-76
2024/01/18 11:27:47;;;;;;;2.60;0.85;;;;;;;;;;5050863;27;92543;-76
2024/01/18 11:30:39;;;;;;;2.78;0.65;;;;;;;;;;5049559;27;94747;-76
2024/01/18 11:33:08;;;;;;;2.58;0.80;;;;;;;;;;5051223;27;92442;-76
2024/01/18 11:35:35;;;;;;;3.08;0.88;;;;;;;;;;5052933;27;93555;-77
2024/01/18 11:38:20;;;;;;;3.33;1.48;;;;;;;;;;5035561;27;92375;-77
2024/01/18 11:40:50;;;;;;;0.70;0.70;;;;;;;;;;5053615;27;92325;-76
2024/01/18 11:43:17;;;;;;;2.67;0.70;;;;;;;;;;5034719;27;94168;-76
2024/01/18 11:45:46;;;;;;;2.17;1.10;;;;;;;;;;5055879;27;92243;-76
2024/01/18 11:48:13;;;;;;;1.55;0.80;;;;;;;;;;5053820;27;92926;-76
2024/01/18 11:50:40;;;;;;;0.52;0.52;;;;;;;;;;5035088;27;93939;-76
2024/01/18 11:53:08;;;;;;;2.30;1.33;;;;;;;;;;5053271;27;92091;-76
2024/01/18 11:55:39;;;;;;;3.75;1.15;;;;;;;;;;5051388;27;94915;-76
2024/01/18 11:58:08;;;;;;;1.73;0.65;;;;;;;;;;5021723;28;93225;-76
2024/01/18 12:00:35;;;;;;;2.30;1.10;;;;;;;;;;5012477;28;92326;-77
2024/01/18 12:03:07;;;;;;;0.80;0.73;;;;;;;;;;5011796;28;94061;-76
2024/01/18 12:05:35;;;;;;;0.60;0.60;;;;;;;;;;5012661;28;92259;-76
2024/01/18 12:08:01;;;;;;;0.85;0.60;;;;;;;;;;5015730;28;92368;-76
2024/01/18 12:10:28;;;;;;;1.23;0.80;;;;;;;;;;5012834;28;94375;-76
2024/01/18 12:12:55;;;;;;;0.55;0.40;;;;;;;;;;5013106;28;92133;-76
2024/01/18 12:15:22;;;;;;;2.67;0.73;;;;;;;;;;5012849;28;92278;-76
2024/01/18 12:17:48;;;;;;;2.15;0.80;;;;;;;;;;5011418;28;93935;-76
2024/01/18 12:20:16;;;;;;;0.70;0.60;;;;;;;;;;5011218;28;94076;-76
2024/01/18 12:22:43;;;;;;;2.20;0.70;;;;;;;;;;5012394;28;94179;-76
2024/01/18 12:25:09;;;;;;;2.78;0.50;;;;;;;;;;5012839;28;93293;-76
2024/01/18 12:27:36;;;;;;;0.88;0.28;;;;;;;;;;5015903;28;92163;-77
2024/01/18 12:30:03;;;;;;;1.83;0.60;;;;;;;;;;5019334;28;94690;-79
2024/01/18 12:32:29;;;;;;;3.15;0.85;;;;;;;;;;5022593;28;92069;-80
2024/01/18 12:34:57;;;;;;;1.15;0.70;;;;;;;;;;5024850;28;92462;-80
2024/01/18 12:37:24;;;;;;;2.28;0.50;;;;;;;;;;5028291;28;91903;-80
2024/01/18 12:39:51;;;;;;;2.45;0.88;;;;;;;;;;5016749;28;92347;-80
2024/01/18 12:42:18;;;;;;;0.80;0.80;;;;;;;;;;5019228;28;92887;-76
2024/01/18 12:44:44;;;;;;;1.55;0.43;;;;;;;;;;5017613;28;95585;-76
2024/01/18 12:47:11;;;;;;;5.25;0.63;;;;;;;;;;5026028;28;92969;-81
2024/01/18 12:49:39;;;;;;;4.55;0.73;;;;;;;;;;5009025;28;94839;-80
2024/01/18 12:52:06;;;;;;;0.63;0.50;;;;;;;;;;5017906;28;93177;-80
2024/01/18 12:54:33;;;;;;;1.48;0.73;;;;;;;;;;5017948;28;92142;-76
2024/01/18 12:57:04;;;;;;;1.35;0.40;;;;;;;;;;5027640;27;92921;-80
2024/01/18 12:59:31;;;;;;;2.43;0.70;;;;;;;;;;5051297;27;93670;-80
2024/01/18 13:01:58;;;;;;;0.52;0.52;;;;;;;;;;5045101;27;92953;-78
2024/01/18 13:04:26;;;;;;;1.33;0.47;;;;;;;;;;5032305;27;93970;-76
2024/01/18 13:06:53;;;;;;;2.13;0.65;;;;;;;;;;5035331;27;92959;-78
2024/01/18 13:09:29;;;;;;;0.50;0.50;;;;;;;;;;5064978;27;94244;-77
2024/01/18 13:11:57;;;;;;;1.88;0.90;;;;;;;;;;5040546;27;93014;-76
2024/01/18 13:14:26;;;;;;;1.17;0.50;;;;;;;;;;5037136;27;95787;-77
2024/01/18 13:16:54;;;;;;;3.80;0.70;;;;;;;;;;5062920;27;92362;-77
2024/01/18 13:19:21;;;;;;;3.13;0.73;;;;;;;;;;5034168;27;92420;-80
2024/01/18 13:21:48;;;;;;;2.15;0.80;;;;;;;;;;5065064;27;92442;-81
2024/01/18 13:24:15;;;;;;;10.88;0.70;;;;;;;;;;5045794;27;94862;-77
2024/01/18 13:26:42;;;;;;;5.07;0.70;;;;;;;;;;5058412;27;92949;-81
2024/01/18 13:29:09;;;;;;;4.72;0.45;;;;;;;;;;5032355;27;93164;-81
2024/01/18 13:31:36;;;;;;;1.90;0.65;;;;;;;;;;5068487;27;92580;-76
2024/01/18 13:34:03;;;;;;;1.25;0.60;;;;;;;;;;5062034;27;94775;-76
2024/01/18 13:36:30;;;;;;;1.20;0.70;;;;;;;;;;5048091;27;92757;-81
2024/01/18 13:38:57;;;;;;;0.73;0.73;;;;;;;;;;5048856;27;93412;-81
2024/01/18 13:41:26;;;;;;;1.02;0.52;;;;;;;;;;5068042;27;92245;-81
2024/01/18 13:43:54;;;;;;;2.38;0.70;;;;;;;;;;5033371;27;92147;-80
2024/01/18 13:46:21;;;;;;;1.23;0.68;;;;;;;;;;5068711;27;92260;-80
2024/01/18 13:48:47;;;;;;;1.65;0.60;;;;;;;;;;5064926;27;92300;-80
2024/01/18 13:51:14;;;;;;;3.55;0.77;;;;;;;;;;5047734;27;92150;-76
2024/01/18 13:53:40;;;;;;;1.85;0.52;;;;;;;;;;5054232;27;93957;-76
2024/01/18 13:56:07;;;;;;;0.65;0.45;;;;;;;;;;5064314;27;93846;-81
2024/01/18 13:58:35;;;;;;;1.23;0.50;;;;;;;;;;5067085;27;94732;-79
2024/01/18 14:01:02;;;;;;;0.80;0.40;;;;;;;;;;5051167;27;96548;-81
2024/01/18 14:03:29;;;;;;;1.45;0.60;;;;;;;;;;5069206;27;92331;-78
2024/01/18 14:05:55;;;;;;;2.40;0.70;;;;;;;;;;5058529;27;92397;-77
2024/01/18 14:08:22;;;;;;;0.38;0.38;;;;;;;;;;5066565;27;92325;-80
2024/01/18 14:10:48;;;;;;;4.22;0.43;;;;;;;;;;5067338;27;93070;-80
2024/01/18 14:13:17;;;;;;;2.17;0.52;;;;;;;;;;5065090;27;92443;-81
2024/01/18 14:15:43;;;;;;;5.47;0.43;;;;;;;;;;5068990;27;92061;-78
2024/01/18 14:18:11;;;;;;;3.45;0.70;;;;;;;;;;5068865;27;92436;-78
2024/01/18 14:20:38;;;;;;;0.57;0.38;;;;;;;;;;5058302;27;92512;-78
2024/01/18 14:23:04;;;;;;;1.00;0.55;;;;;;;;;;5058701;27;94476;-77
2024/01/18 14:25:31;;;;;;;0.75;0.52;;;;;;;;;;5061209;27;92128;-81
2024/01/18 14:27:57;;;;;;;6.43;0.57;;;;;;;;;;5062201;27;92749;-79
2024/01/18 14:30:27;;;;;;;1.40;0.40;;;;;;;;;;5068249;27;92867;-79
2024/01/18 14:32:54;;;;;;;1.67;0.50;;;;;;;;;;5050332;27;94265;-78
2024/01/18 14:35:21;;;;;;;1.67;0.40;;;;;;;;;;5069766;27;92741;-79
2024/01/18 14:37:47;;;;;;;1.73;0.40;;;;;;;;;;5056187;27;92404;-81
2024/01/18 14:40:14;;;;;;;1.05;0.68;;;;;;;;;;5037297;27;91619;-81
2024/01/18 14:42:40;;;;;;;0.70;0.65;;;;;;;;;;5052871;27;92413;-81